KHKA/HKA METAR and TAF weather

Enter ICAO airport designator
Station Type Date Time Source
KHKA METAR 2021/04/13 22:53 UTC NOAA

KHKA 132253Z AUTO 02012KT 10SM SCT090 OVC110 21/08 A3006 RMK AO2 SLP177 T02110083 $


Station Type Date Time Source
KHKA Decoded METAR 2021/04/13 22:53 UTC NOAA

BLYTHEVILLE MUNICIPAL AIRPORT , AR, United States (KHKA) 35-56N 89-50W 78M
Apr 13, 2021 - 06:53 PM EDT / 2021.04.13 2253 UTC
Wind: from the NNE (020 degrees) at 14 MPH (12 KT):0
Visibility: 10 mile(s):0
Sky conditions: overcast
Temperature: 70.0 F (21.1 C)
Dew Point: 46.9 F (8.3 C)
Relative Humidity: 43%
Pressure (altimeter): 30.06 in. Hg (1017 hPa)
ob: KHKA 132253Z AUTO 02012KT 10SM SCT090 OVC110 21/08 A3006 RMK AO2 SLP177 T02110083
cycle: 23

Station Type Date Time Source
KHKA TAF UTC NOAA

Error!

Example: see airport list